createdAt,value
2023-11-06T00:04:18.657Z,21.3
2023-11-06T00:10:09.135Z,21.3
2023-11-06T00:16:05.688Z,21.3
2023-11-06T00:22:05.005Z,21.3
2023-11-06T00:27:55.470Z,21.2
2023-11-06T00:33:47.715Z,21.2
2023-11-06T00:39:42.856Z,21.2
2023-11-06T00:45:34.395Z,21.2
2023-11-06T00:51:26.588Z,21.2
2023-11-06T00:57:18.411Z,21.2
2023-11-06T01:25:15.048Z,21.1
2023-11-06T01:42:19.251Z,21.1
2023-11-06T01:48:11.683Z,21.1
2023-11-06T01:54:02.966Z,21.1
2023-11-06T01:59:39.060Z,21.1
2023-11-06T02:05:31.926Z,21.1
2023-11-06T02:11:07.968Z,21.1
2023-11-06T02:17:00.570Z,21.1
2023-11-06T02:23:03.494Z,21
2023-11-06T02:28:55.317Z,21
2023-11-06T02:34:48.222Z,21
2023-11-06T02:40:41.200Z,21
2023-11-06T02:46:33.127Z,21
2023-11-06T02:52:27.025Z,21
2023-11-06T02:58:19.174Z,21
2023-11-06T03:04:11.310Z,20.9
2023-11-06T03:10:04.192Z,20.9
2023-11-06T03:15:56.293Z,20.9
2023-11-06T03:21:48.087Z,20.9
2023-11-06T03:27:39.796Z,20.9
2023-11-06T03:33:32.432Z,20.9
2023-11-06T03:39:24.413Z,20.9
2023-11-06T03:45:17.480Z,20.9
2023-11-06T03:51:13.908Z,20.9
2023-11-06T03:57:04.874Z,20.9
2023-11-06T04:02:41.631Z,20.9
2023-11-06T04:08:36.625Z,20.9
2023-11-06T04:14:28.943Z,20.8
2023-11-06T04:20:22.515Z,20.8
2023-11-06T04:26:14.834Z,20.9
2023-11-06T04:32:05.895Z,20.8
2023-11-06T04:37:44.231Z,20.8
2023-11-06T04:43:37.182Z,20.8
2023-11-06T04:49:28.828Z,20.8
2023-11-06T04:55:20.841Z,20.8
2023-11-06T05:01:15.979Z,20.8
2023-11-06T05:06:53.867Z,20.8
2023-11-06T05:12:45.471Z,20.8
2023-11-06T05:18:37.032Z,20.8
2023-11-06T05:24:17.881Z,20.8
2023-11-06T05:30:10.017Z,20.8
2023-11-06T05:35:47.368Z,20.8
2023-11-06T05:41:23.997Z,20.8
2023-11-06T05:47:00.100Z,20.8
2023-11-06T05:52:53.586Z,20.8
2023-11-06T05:58:33.949Z,20.8
2023-11-06T06:04:12.138Z,20.8
2023-11-06T06:09:51.099Z,20.8
2023-11-06T06:15:26.649Z,20.8
2023-11-06T06:21:04.687Z,20.8
2023-11-06T06:26:41.444Z,20.8
2023-11-06T06:32:19.209Z,20.8
2023-11-06T06:37:41.344Z,20.8
2023-11-06T06:43:17.798Z,23.7
2023-11-06T06:48:38.663Z,39.9
2023-11-06T06:54:15.629Z,35
2023-11-06T06:59:52.487Z,33.9
2023-11-06T07:05:29.466Z,34.6
2023-11-06T07:11:07.174Z,34.8
2023-11-06T07:16:43.720Z,35.3
2023-11-06T07:22:20.763Z,36.1
2023-11-06T07:27:42.976Z,37
2023-11-06T07:33:19.720Z,37.6
2023-11-06T07:39:12.504Z,38.1
2023-11-06T07:44:49.450Z,39
2023-11-06T07:50:27.020Z,40.2
2023-11-06T07:56:03.230Z,41.3
2023-11-06T08:01:54.089Z,42.3
2023-11-06T08:07:46.784Z,43.6
2023-11-06T08:13:24.807Z,44.8
2023-11-06T08:18:48.025Z,45.9
2023-11-06T08:24:41.711Z,47
2023-11-06T08:30:33.217Z,48.1
2023-11-06T08:36:27.669Z,49
2023-11-06T08:42:04.984Z,49.9
2023-11-06T08:47:56.712Z,50.6
2023-11-06T08:53:39.590Z,51.3
2023-11-06T08:59:32.174Z,51.8
2023-11-06T09:05:24.779Z,52.3
2023-11-06T09:11:03.247Z,52.9
2023-11-06T09:16:55.455Z,53.6
2023-11-06T09:22:47.818Z,54.1
2023-11-06T09:28:43.090Z,54.5
2023-11-06T09:34:37.009Z,54.7
2023-11-06T09:40:29.478Z,55
2023-11-06T09:46:06.989Z,56.6
2023-11-06T09:52:03.592Z,57.6
2023-11-06T09:57:27.104Z,58.4
2023-11-06T10:03:20.332Z,59.4
2023-11-06T10:09:14.199Z,59.7
2023-11-06T10:14:55.075Z,57.9
2023-11-06T10:20:48.687Z,57.5
2023-11-06T10:26:43.484Z,54.6
2023-11-06T10:32:21.717Z,55.8
2023-11-06T10:38:02.808Z,59.1
2023-11-06T10:44:13.358Z,61.6
2023-11-06T10:50:07.455Z,62.7
2023-11-06T10:56:12.267Z,59.5
2023-11-06T11:02:05.399Z,55.7
2023-11-06T11:07:59.617Z,61.1
2023-11-06T11:13:55.163Z,63
2023-11-06T11:19:51.624Z,63.6
2023-11-06T11:25:44.831Z,61.8
2023-11-06T11:31:38.004Z,56.7
2023-11-06T11:37:36.911Z,60.9
2023-11-06T11:43:30.157Z,61.9
2023-11-06T11:49:22.577Z,58.9
2023-11-06T12:00:51.878Z,59.1
2023-11-06T12:06:46.786Z,52.8
2023-11-06T12:12:44.046Z,47.4
2023-11-06T12:18:43.240Z,62
2023-11-06T12:24:36.848Z,60.9
2023-11-06T12:30:14.409Z,57.5
2023-11-06T12:36:09.837Z,55.9
2023-11-06T12:42:02.037Z,49.3
2023-11-06T12:48:08.510Z,44.2
2023-11-06T12:54:02.425Z,49.1
2023-11-06T12:59:53.890Z,59
2023-11-06T13:05:49.740Z,52.3
2023-11-06T13:11:29.618Z,46.6
2023-11-06T13:17:12.152Z,42
2023-11-06T13:23:05.536Z,38.8
2023-11-06T13:28:58.893Z,36.3
2023-11-06T13:34:51.047Z,34.5
2023-11-06T13:40:44.998Z,33
2023-11-06T13:46:35.656Z,31.8
2023-11-06T13:52:28.540Z,30.8
2023-11-06T13:58:37.539Z,29.8
2023-11-06T14:04:14.770Z,29.1
2023-11-06T14:10:06.905Z,28.4
2023-11-06T14:21:34.872Z,27.4
2023-11-06T14:27:26.757Z,26.9
2023-11-06T14:33:19.263Z,26.6
2023-11-06T14:39:11.302Z,26.3
2023-11-06T14:45:03.672Z,26
2023-11-06T14:51:07.393Z,25.8
2023-11-06T14:57:14.593Z,25.5
2023-11-06T15:03:07.064Z,25.3
2023-11-06T15:09:01.040Z,25.1
2023-11-06T15:14:52.931Z,24.9
2023-11-06T15:20:46.133Z,24.8
2023-11-06T15:26:42.735Z,24.6
2023-11-06T15:32:35.217Z,24.5
2023-11-06T15:38:29.153Z,24.3
2023-11-06T15:44:25.523Z,24.3
2023-11-06T15:50:28.063Z,24.2
2023-11-06T15:56:20.922Z,24.1
2023-11-06T16:01:42.775Z,24
2023-11-06T16:07:37.750Z,23.9
2023-11-06T16:13:30.010Z,23.9
2023-11-06T16:19:23.024Z,23.9
2023-11-06T16:25:17.825Z,23.8
2023-11-06T16:30:54.800Z,23.8
2023-11-06T16:37:01.484Z,23.7
2023-11-06T16:42:53.659Z,23.6
2023-11-06T16:48:46.857Z,23.6
2023-11-06T16:54:38.886Z,23.6
2023-11-06T17:00:30.931Z,23.5
2023-11-06T17:06:24.429Z,23.5
2023-11-06T17:12:20.929Z,23.4
2023-11-06T17:18:16.889Z,23.3
2023-11-06T17:24:14.389Z,23.3
2023-11-06T17:30:06.632Z,23.3
2023-11-06T17:35:59.785Z,23.3
2023-11-06T17:41:52.212Z,23.3
2023-11-06T17:47:49.995Z,23.3
2023-11-06T17:53:42.187Z,23.3
2023-11-06T17:59:34.458Z,23.3
2023-11-06T18:05:30.355Z,23.2
2023-11-06T18:11:06.315Z,23.2
2023-11-06T18:16:57.803Z,23.3
2023-11-06T18:22:51.307Z,23.2
2023-11-06T18:28:42.709Z,23.2
2023-11-06T18:34:35.144Z,23.1
2023-11-06T18:40:12.250Z,23.1
2023-11-06T18:45:48.274Z,23.1
2023-11-06T18:51:41.059Z,23.1
2023-11-06T18:57:34.070Z,23.1
2023-11-06T19:03:25.708Z,23.1
2023-11-06T19:09:25.635Z,23.1
2023-11-06T19:15:18.316Z,23
2023-11-06T19:21:10.929Z,23
2023-11-06T19:27:03.081Z,23
2023-11-06T19:32:58.709Z,23
2023-11-06T19:38:50.854Z,23
2023-11-06T19:44:43.002Z,22.9
2023-11-06T19:50:39.472Z,22.9
2023-11-06T19:56:31.243Z,22.9
2023-11-06T20:02:58.493Z,22.9
2023-11-06T20:08:52.129Z,22.9
2023-11-06T20:14:43.573Z,22.9
2023-11-06T20:20:36.904Z,22.9
2023-11-06T20:26:29.640Z,22.9
2023-11-06T20:32:08.108Z,22.9
2023-11-06T20:37:46.030Z,22.9
2023-11-06T20:43:24.990Z,22.9
2023-11-06T20:49:01.994Z,22.9
2023-11-06T20:54:54.129Z,22.8
2023-11-06T21:00:46.663Z,22.8
2023-11-06T21:06:24.255Z,22.9
2023-11-06T21:12:16.193Z,22.8
2023-11-06T21:18:08.738Z,22.8
2023-11-06T21:24:00.652Z,22.8
2023-11-06T21:29:52.990Z,22.8
2023-11-06T21:35:49.714Z,22.8
2023-11-06T21:41:26.470Z,22.8
2023-11-06T21:47:03.547Z,22.8
2023-11-06T21:52:56.511Z,22.8
2023-11-06T21:59:03.198Z,22.8
2023-11-06T22:04:55.940Z,22.8
2023-11-06T22:10:48.247Z,22.8
2023-11-06T22:16:25.487Z,22.8
2023-11-06T22:21:50.359Z,22.7
2023-11-06T22:27:10.735Z,22.7
2023-11-06T22:33:02.786Z,22.7
2023-11-06T22:38:57.333Z,22.7
2023-11-06T22:44:34.125Z,22.6
2023-11-06T22:50:27.109Z,22.6
2023-11-06T22:56:03.935Z,22.6
2023-11-06T23:01:40.589Z,22.6
2023-11-06T23:07:17.705Z,22.6
2023-11-06T23:13:10.308Z,22.6
2023-11-06T23:19:02.983Z,22.5
2023-11-06T23:24:54.848Z,22.5
2023-11-06T23:30:51.289Z,22.5
2023-11-06T23:36:44.190Z,22.4
2023-11-06T23:42:47.193Z,22.4
2023-11-06T23:48:39.557Z,22.4
2023-11-06T23:54:32.503Z,22.4
